createdAt,value
2022-09-17T00:02:40.231Z,1.16
2022-09-17T00:08:12.007Z,1.16
2022-09-17T00:13:43.617Z,1.16
2022-09-17T00:19:15.470Z,1.15
2022-09-17T00:24:47.315Z,1.17
2022-09-17T00:30:19.350Z,1.16
2022-09-17T00:35:51.489Z,1.16
2022-09-17T00:41:23.210Z,1.17
2022-09-17T00:46:54.948Z,1.17
2022-09-17T00:52:26.733Z,1.16
2022-09-17T00:57:58.323Z,1.17
2022-09-17T01:03:30.215Z,1.16
2022-09-17T01:09:02.044Z,1.16
2022-09-17T01:14:33.660Z,1.16
2022-09-17T01:20:04.874Z,1.16
2022-09-17T01:25:36.785Z,1.16
2022-09-17T01:31:08.587Z,1.16
2022-09-17T01:36:40.280Z,1.16
2022-09-17T01:42:11.789Z,1.16
2022-09-17T01:47:43.278Z,1.16
2022-09-17T01:53:14.571Z,1.17
2022-09-17T01:58:45.928Z,1.17
2022-09-17T02:04:18.702Z,1.16
2022-09-17T02:09:50.689Z,1.16
2022-09-17T02:15:22.501Z,1.16
2022-09-17T02:20:54.276Z,1.15
2022-09-17T02:26:26.030Z,1.16
2022-09-17T02:31:58.102Z,1.16
2022-09-17T02:42:59.869Z,1.15
2022-09-17T02:48:31.803Z,1.16
2022-09-17T02:54:03.699Z,1.17
2022-09-17T02:59:35.746Z,1.16
2022-09-17T03:05:07.217Z,1.16
2022-09-17T03:10:39.176Z,1.16
2022-09-17T03:16:10.932Z,1.16
2022-09-17T03:21:42.725Z,1.16
2022-09-17T03:24:06.696Z,1.16
2022-09-17T03:29:38.305Z,1.17
2022-09-17T03:35:09.631Z,1.16
2022-09-17T03:40:41.390Z,1.16
2022-09-17T03:46:12.797Z,1.16
2022-09-17T03:51:44.095Z,1.15
2022-09-17T03:57:15.446Z,1.16
2022-09-17T04:02:47.158Z,1.16
2022-09-17T04:08:18.487Z,1.15
2022-09-17T04:13:50.314Z,1.16
2022-09-17T04:19:22.146Z,1.16
2022-09-17T04:24:53.830Z,1.16
2022-09-17T04:30:25.942Z,1.15
2022-09-17T04:35:57.745Z,1.16
2022-09-17T04:41:29.271Z,1.16
2022-09-17T04:47:01.032Z,1.15
2022-09-17T04:52:32.795Z,1.16
2022-09-17T04:58:04.377Z,1.15
2022-09-17T05:03:35.820Z,1.16
2022-09-17T05:09:07.333Z,1.14
2022-09-17T05:14:38.736Z,1.15
2022-09-17T05:20:10.101Z,1.16
2022-09-17T05:25:41.400Z,1.16
2022-09-17T05:31:12.772Z,1.15
2022-09-17T05:36:44.221Z,1.16
2022-09-17T05:42:15.769Z,1.16
2022-09-17T05:47:47.079Z,1.16
2022-09-17T05:53:18.527Z,1.16
2022-09-17T05:58:49.986Z,1.17
2022-09-17T06:04:21.118Z,1.16
2022-09-17T06:09:52.472Z,1.16
2022-09-17T06:15:23.872Z,1.16
2022-09-17T06:20:55.246Z,1.16
2022-09-17T06:26:26.684Z,1.16
2022-09-17T06:31:58.368Z,1.16
2022-09-17T06:37:29.835Z,1.16
2022-09-17T06:43:01.242Z,1.17
2022-09-17T06:48:32.844Z,1.17
2022-09-17T06:54:04.194Z,1.16
2022-09-17T06:59:35.881Z,1.15
2022-09-17T07:10:38.881Z,1.16
2022-09-17T07:16:10.417Z,1.17
2022-09-17T07:21:42.126Z,1.17
2022-09-17T07:27:13.607Z,1.17
2022-09-17T07:35:06.630Z,1.18
2022-09-17T07:40:37.843Z,1.18
2022-09-17T07:46:09.121Z,1.19
2022-09-17T07:51:40.721Z,1.18
2022-09-17T07:57:11.850Z,1.18
2022-09-17T08:02:43.165Z,1.18
2022-09-17T08:08:18.880Z,1.17
2022-09-17T08:13:46.222Z,1.18
2022-09-17T08:19:17.561Z,1.17
2022-09-17T08:24:49.005Z,1.17
2022-09-17T08:30:20.167Z,1.18
2022-09-17T08:35:51.411Z,1.17
2022-09-17T08:41:22.735Z,1.16
2022-09-17T08:46:54.038Z,1.16
2022-09-17T08:52:25.304Z,1.17
2022-09-17T08:57:56.740Z,1.16
2022-09-17T09:03:28.322Z,1.16
2022-09-17T09:14:30.965Z,1.16
2022-09-17T09:20:02.340Z,1.16
2022-09-17T09:25:33.943Z,1.16
2022-09-17T09:31:05.616Z,1.16
2022-09-17T09:36:36.707Z,1.16
2022-09-17T09:47:39.391Z,1.16
2022-09-17T09:53:10.860Z,1.16
2022-09-17T09:58:42.431Z,1.16
2022-09-17T10:04:14.202Z,1.16
2022-09-17T10:09:45.499Z,1.16
2022-09-17T10:15:16.810Z,1.16
2022-09-17T10:20:48.722Z,1.17
2022-09-17T10:26:20.171Z,1.15
2022-09-17T10:31:51.569Z,1.16
2022-09-17T10:37:22.941Z,1.16
2022-09-17T10:42:54.245Z,1.17
2022-09-17T10:48:25.586Z,1.16
2022-09-17T10:53:57.175Z,1.16
2022-09-17T10:59:28.672Z,1.17
2022-09-17T11:05:00.074Z,1.16
2022-09-17T11:10:32.018Z,1.17
2022-09-17T11:16:03.715Z,1.17
2022-09-17T11:21:34.801Z,1.16
2022-09-17T11:27:07.423Z,1.16
2022-09-17T11:43:42.736Z,1.16
2022-09-17T11:49:14.505Z,1.16
2022-09-17T11:54:45.827Z,1.17
2022-09-17T12:00:17.509Z,1.17
2022-09-17T12:05:48.982Z,1.15
2022-09-17T12:11:20.584Z,1.17
2022-09-17T12:16:52.457Z,1.16
2022-09-17T12:22:23.638Z,1.17
2022-09-17T12:27:55.318Z,1.16
2022-09-17T12:33:27.263Z,1.16
2022-09-17T12:39:02.838Z,1.16
2022-09-17T12:44:30.489Z,1.17
2022-09-17T12:50:01.758Z,1.17
2022-09-17T12:55:33.554Z,1.16
2022-09-17T13:01:05.243Z,1.17
2022-09-17T13:06:36.817Z,1.16
2022-09-17T13:12:08.281Z,1.17
2022-09-17T13:17:39.701Z,1.18
2022-09-17T13:23:11.466Z,1.17
2022-09-17T13:34:14.431Z,1.15
2022-09-17T13:39:45.684Z,1.16
2022-09-17T13:45:17.008Z,1.17
2022-09-17T13:50:48.308Z,1.16
2022-09-17T13:56:19.803Z,1.16
2022-09-17T14:07:21.082Z,1.16
2022-09-17T14:12:52.425Z,1.16
2022-09-17T14:18:24.054Z,1.17
2022-09-17T14:23:55.531Z,1.16
2022-09-17T14:29:27.363Z,1.17
2022-09-17T14:34:59.307Z,1.16
2022-09-17T14:40:30.888Z,1.15
2022-09-17T14:46:02.793Z,1.16
2022-09-17T14:51:34.514Z,1.16
2022-09-17T14:57:06.267Z,1.16
2022-09-17T15:02:38.254Z,1.17
2022-09-17T15:08:10.104Z,1.16
2022-09-17T15:16:02.020Z,1.17
2022-09-17T15:21:34.329Z,1.15
2022-09-17T15:27:05.694Z,1.16
2022-09-17T15:32:37.219Z,1.16
2022-09-17T15:38:22.334Z,1.16
2022-09-17T15:49:09.604Z,1.16
2022-09-17T15:54:41.137Z,1.16
2022-09-17T16:00:12.863Z,1.16
2022-09-17T16:05:44.295Z,1.16
2022-09-17T16:11:16.222Z,1.16
2022-09-17T16:16:47.799Z,1.17
2022-09-17T16:22:19.056Z,1.16
2022-09-17T16:27:50.540Z,1.17
2022-09-17T16:33:22.207Z,1.16
2022-09-17T16:38:53.634Z,1.16
2022-09-17T16:44:25.347Z,1.15
2022-09-17T16:55:26.140Z,1.16
2022-09-17T17:00:57.898Z,1.16
2022-09-17T17:06:29.268Z,1.15
2022-09-17T17:17:31.087Z,1.16
2022-09-17T17:25:22.948Z,1.16
2022-09-17T17:30:54.555Z,1.16
2022-09-17T17:36:26.310Z,1.15
2022-09-17T17:41:58.133Z,1.17
2022-09-17T17:49:50.594Z,1.16
2022-09-17T17:55:21.859Z,1.16
2022-09-17T18:06:22.811Z,1.16
2022-09-17T18:11:54.402Z,1.15
2022-09-17T18:17:26.409Z,1.15
2022-09-17T18:22:58.074Z,1.16
2022-09-17T18:33:58.763Z,1.15
2022-09-17T18:44:59.574Z,1.15
2022-09-17T18:50:31.027Z,1.45
2022-09-17T19:07:01.273Z,1.45
2022-09-17T19:12:32.693Z,1.45
2022-09-17T19:18:04.116Z,1.43
2022-09-17T19:23:35.726Z,1.45
2022-09-17T19:34:36.529Z,1.15
2022-09-17T19:40:08.354Z,1.14
2022-09-17T19:45:39.804Z,1.15
2022-09-17T19:51:11.693Z,1.15
2022-09-17T19:56:43.086Z,1.16
2022-09-17T20:02:14.531Z,1.17
2022-09-17T20:07:46.872Z,1.16
2022-09-17T20:13:18.519Z,1.15
2022-09-17T20:18:49.759Z,1.16
2022-09-17T20:24:21.657Z,1.15
2022-09-17T20:29:53.378Z,1.16
2022-09-17T20:35:24.655Z,1.15
2022-09-17T20:40:56.513Z,1.45
2022-09-17T20:46:29.576Z,1.45
2022-09-17T20:51:59.502Z,1.45
2022-09-17T20:57:30.909Z,1.16
2022-09-17T21:03:02.761Z,1.16
2022-09-17T21:08:34.463Z,1.16
2022-09-17T21:14:06.282Z,1.15
2022-09-17T21:19:38.309Z,1.16
2022-09-17T21:25:10.170Z,1.15
2022-09-17T21:30:41.924Z,1.16
2022-09-17T21:36:13.304Z,1.15
2022-09-17T21:41:44.635Z,1.16
2022-09-17T21:47:16.059Z,1.15
2022-09-17T21:52:47.445Z,1.16
2022-09-17T21:58:19.262Z,1.15
2022-09-17T22:03:51.055Z,1.16
2022-09-17T22:09:22.354Z,1.15
2022-09-17T22:14:54.000Z,1.16
2022-09-17T22:20:25.489Z,1.15
2022-09-17T22:25:57.165Z,1.16
2022-09-17T22:37:00.185Z,1.15
2022-09-17T22:42:31.829Z,1.15
2022-09-17T22:48:03.071Z,1.16
2022-09-17T22:53:34.891Z,1.16
2022-09-17T22:59:06.523Z,1.16
2022-09-17T23:04:38.312Z,1.15
2022-09-17T23:10:09.569Z,1.16
2022-09-17T23:15:41.639Z,1.15
2022-09-17T23:21:13.295Z,1.15
2022-09-17T23:26:45.231Z,1.15
2022-09-17T23:37:47.973Z,1.15
2022-09-17T23:43:19.504Z,1.15
2022-09-17T23:48:51.720Z,1.15
2022-09-17T23:54:23.394Z,1.15
2022-09-17T23:59:55.257Z,1.15
